sensor_id;sensor_type;location;lat;lon;timestamp;pressure;altitude;pressure_sealevel;temperature
55038;BMP280;40937;53.594;10.034;2023-12-20T00:00:02;101057.28;;;7.30
55038;BMP280;40937;53.594;10.034;2023-12-20T00:02:30;101053.25;;;7.28
55038;BMP280;40937;53.594;10.034;2023-12-20T00:04:59;101055.25;;;7.32
55038;BMP280;40937;53.594;10.034;2023-12-20T00:07:26;101052.00;;;7.23
55038;BMP280;40937;53.594;10.034;2023-12-20T00:09:55;101052.84;;;7.24
55038;BMP280;40937;53.594;10.034;2023-12-20T00:12:22;101050.41;;;7.16
55038;BMP280;40937;53.594;10.034;2023-12-20T00:14:49;101050.81;;;7.19
55038;BMP280;40937;53.594;10.034;2023-12-20T00:17:16;101057.28;;;7.17
55038;BMP280;40937;53.594;10.034;2023-12-20T00:19:43;101051.22;;;7.23
55038;BMP280;40937;53.594;10.034;2023-12-20T00:22:11;101047.78;;;7.16
55038;BMP280;40937;53.594;10.034;2023-12-20T00:24:38;101041.91;;;7.14
55038;BMP280;40937;53.594;10.034;2023-12-20T00:27:07;101040.94;;;7.15
55038;BMP280;40937;53.594;10.034;2023-12-20T00:29:34;101038.25;;;7.08
55038;BMP280;40937;53.594;10.034;2023-12-20T00:32:01;101035.03;;;7.13
55038;BMP280;40937;53.594;10.034;2023-12-20T00:34:28;101042.31;;;7.17
55038;BMP280;40937;53.594;10.034;2023-12-20T00:36:56;101028.97;;;7.19
55038;BMP280;40937;53.594;10.034;2023-12-20T00:39:23;101026.97;;;7.14
55038;BMP280;40937;53.594;10.034;2023-12-20T00:41:50;101025.97;;;7.09
55038;BMP280;40937;53.594;10.034;2023-12-20T00:44:19;101023.31;;;7.02
55038;BMP280;40937;53.594;10.034;2023-12-20T00:46:46;101016.06;;;7.11
55038;BMP280;40937;53.594;10.034;2023-12-20T00:49:13;101004.16;;;7.08
55038;BMP280;40937;53.594;10.034;2023-12-20T00:51:40;101012.06;;;7.15
55038;BMP280;40937;53.594;10.034;2023-12-20T00:54:07;101004.81;;;7.17
55038;BMP280;40937;53.594;10.034;2023-12-20T00:56:35;100991.06;;;7.15
55038;BMP280;40937;53.594;10.034;2023-12-20T00:59:02;101000.34;;;7.11
55038;BMP280;40937;53.594;10.034;2023-12-20T01:01:30;101000.94;;;7.13
55038;BMP280;40937;53.594;10.034;2023-12-20T01:03:58;101000.53;;;7.16
55038;BMP280;40937;53.594;10.034;2023-12-20T01:06:26;100997.09;;;7.09
55038;BMP280;40937;53.594;10.034;2023-12-20T01:08:53;100995.09;;;7.17
55038;BMP280;40937;53.594;10.034;2023-12-20T01:11:20;101004.19;;;7.15
55038;BMP280;40937;53.594;10.034;2023-12-20T01:13:47;101005.59;;;7.11
55038;BMP280;40937;53.594;10.034;2023-12-20T01:16:15;100995.88;;;7.11
55038;BMP280;40937;53.594;10.034;2023-12-20T01:18:43;101003.16;;;7.02
55038;BMP280;40937;53.594;10.034;2023-12-20T01:21:11;100994.28;;;7.03
55038;BMP280;40937;53.594;10.034;2023-12-20T01:23:38;100994.69;;;7.07
55038;BMP280;40937;53.594;10.034;2023-12-20T01:26:05;100975.69;;;7.05
55038;BMP280;40937;53.594;10.034;2023-12-20T01:28:32;100982.97;;;7.03
55038;BMP280;40937;53.594;10.034;2023-12-20T01:30:59;100982.97;;;7.10
55038;BMP280;40937;53.594;10.034;2023-12-20T01:33:26;100985.00;;;7.01
55038;BMP280;40937;53.594;10.034;2023-12-20T01:35:55;100987.38;;;6.96
55038;BMP280;40937;53.594;10.034;2023-12-20T01:38:22;100993.06;;;6.99
55038;BMP280;40937;53.594;10.034;2023-12-20T01:40:52;100991.81;;;6.95
55038;BMP280;40937;53.594;10.034;2023-12-20T01:43:20;100990.81;;;6.90
55038;BMP280;40937;53.594;10.034;2023-12-20T01:45:48;100981.94;;;6.84
55038;BMP280;40937;53.594;10.034;2023-12-20T01:48:15;100977.69;;;6.83
55038;BMP280;40937;53.594;10.034;2023-12-20T01:50:43;100969.81;;;6.83
55038;BMP280;40937;53.594;10.034;2023-12-20T01:53:13;100974.06;;;6.84
55038;BMP280;40937;53.594;10.034;2023-12-20T01:55:42;100970.41;;;6.85
55038;BMP280;40937;53.594;10.034;2023-12-20T01:58:11;100975.47;;;6.87
55038;BMP280;40937;53.594;10.034;2023-12-20T02:00:39;100975.66;;;6.85
55038;BMP280;40937;53.594;10.034;2023-12-20T02:03:06;100967.19;;;6.83
55038;BMP280;40937;53.594;10.034;2023-12-20T02:05:35;100953.69;;;6.86
55038;BMP280;40937;53.594;10.034;2023-12-20T02:08:02;100953.09;;;6.84
55038;BMP280;40937;53.594;10.034;2023-12-20T02:10:32;100955.91;;;6.89
55038;BMP280;40937;53.594;10.034;2023-12-20T02:12:59;100951.66;;;6.75
55038;BMP280;40937;53.594;10.034;2023-12-20T02:15:26;100951.47;;;6.76
55038;BMP280;40937;53.594;10.034;2023-12-20T02:17:53;100938.97;;;6.78
55038;BMP280;40937;53.594;10.034;2023-12-20T02:20:21;100936.91;;;6.74
55038;BMP280;40937;53.594;10.034;2023-12-20T02:22:49;100931.69;;;6.74
55038;BMP280;40937;53.594;10.034;2023-12-20T02:25:16;100937.56;;;6.76
55038;BMP280;40937;53.594;10.034;2023-12-20T02:27:44;100941.59;;;6.78
55038;BMP280;40937;53.594;10.034;2023-12-20T02:30:11;100936.31;;;6.72
55038;BMP280;40937;53.594;10.034;2023-12-20T02:32:39;100924.84;;;6.73
55038;BMP280;40937;53.594;10.034;2023-12-20T02:35:06;100927.63;;;6.64
55038;BMP280;40937;53.594;10.034;2023-12-20T02:37:33;100928.41;;;6.58
55038;BMP280;40937;53.594;10.034;2023-12-20T02:40:02;100932.47;;;6.68
55038;BMP280;40937;53.594;10.034;2023-12-20T02:42:30;100923.97;;;6.52
55038;BMP280;40937;53.594;10.034;2023-12-20T02:44:57;100928.41;;;6.52
55038;BMP280;40937;53.594;10.034;2023-12-20T02:47:24;100929.03;;;6.60
55038;BMP280;40937;53.594;10.034;2023-12-20T02:49:51;100933.25;;;6.61
55038;BMP280;40937;53.594;10.034;2023-12-20T02:52:18;100923.81;;;6.60
55038;BMP280;40937;53.594;10.034;2023-12-20T02:54:46;100921.19;;;6.60
55038;BMP280;40937;53.594;10.034;2023-12-20T02:57:14;100911.91;;;6.64
55038;BMP280;40937;53.594;10.034;2023-12-20T02:59:41;100908.06;;;6.67
55038;BMP280;40937;53.594;10.034;2023-12-20T03:02:08;100902.81;;;6.67
55038;BMP280;40937;53.594;10.034;2023-12-20T03:04:35;100907.06;;;6.61
55038;BMP280;40937;53.594;10.034;2023-12-20T03:07:03;100897.81;;;6.65
55038;BMP280;40937;53.594;10.034;2023-12-20T03:09:30;100900.19;;;6.67
55038;BMP280;40937;53.594;10.034;2023-12-20T03:11:57;100891.34;;;6.68
55038;BMP280;40937;53.594;10.034;2023-12-20T03:14:26;100892.94;;;6.69
55038;BMP280;40937;53.594;10.034;2023-12-20T03:16:53;100887.75;;;6.76
55038;BMP280;40937;53.594;10.034;2023-12-20T03:19:20;100887.75;;;6.76
55038;BMP280;40937;53.594;10.034;2023-12-20T03:21:47;100883.28;;;6.70
55038;BMP280;40937;53.594;10.034;2023-12-20T03:24:14;100882.84;;;6.59
55038;BMP280;40937;53.594;10.034;2023-12-20T03:26:41;100880.03;;;6.68
55038;BMP280;40937;53.594;10.034;2023-12-20T03:29:08;100875.81;;;6.66
55038;BMP280;40937;53.594;10.034;2023-12-20T03:31:37;100878.84;;;6.63
55038;BMP280;40937;53.594;10.034;2023-12-20T03:34:04;100867.34;;;6.64
55038;BMP280;40937;53.594;10.034;2023-12-20T03:36:31;100872.59;;;6.64
55038;BMP280;40937;53.594;10.034;2023-12-20T03:38:58;100864.31;;;6.68
55038;BMP280;40937;53.594;10.034;2023-12-20T03:41:25;100869.53;;;6.68
55038;BMP280;40937;53.594;10.034;2023-12-20T03:43:53;100865.94;;;6.69
55038;BMP280;40937;53.594;10.034;2023-12-20T03:46:20;100867.34;;;6.71
55038;BMP280;40937;53.594;10.034;2023-12-20T03:48:48;100865.16;;;6.75
55038;BMP280;40937;53.594;10.034;2023-12-20T03:51:15;100854.66;;;6.68
55038;BMP280;40937;53.594;10.034;2023-12-20T03:53:42;100857.66;;;6.72
55038;BMP280;40937;53.594;10.034;2023-12-20T03:56:10;100845.16;;;6.74
55038;BMP280;40937;53.594;10.034;2023-12-20T03:58:37;100838.72;;;6.70
55038;BMP280;40937;53.594;10.034;2023-12-20T04:01:09;100847.78;;;6.60
55038;BMP280;40937;53.594;10.034;2023-12-20T04:03:38;100835.28;;;6.69
55038;BMP280;40937;53.594;10.034;2023-12-20T04:06:07;100839.50;;;6.57
55038;BMP280;40937;53.594;10.034;2023-12-20T04:08:34;100846.16;;;6.59
55038;BMP280;40937;53.594;10.034;2023-12-20T04:11:01;100839.72;;;6.62
55038;BMP280;40937;53.594;10.034;2023-12-20T04:13:28;100836.06;;;6.56
55038;BMP280;40937;53.594;10.034;2023-12-20T04:15:56;100827.81;;;6.59
55038;BMP280;40937;53.594;10.034;2023-12-20T04:18:23;100828.00;;;6.58
55038;BMP280;40937;53.594;10.034;2023-12-20T04:20:50;100822.56;;;6.59
55038;BMP280;40937;53.594;10.034;2023-12-20T04:23:18;100820.34;;;6.63
55038;BMP280;40937;53.594;10.034;2023-12-20T04:25:46;100814.50;;;6.68
55038;BMP280;40937;53.594;10.034;2023-12-20T04:28:13;100812.28;;;6.64
55038;BMP280;40937;53.594;10.034;2023-12-20T04:30:41;100802.63;;;6.72
55038;BMP280;40937;53.594;10.034;2023-12-20T04:33:08;100804.25;;;6.73
55038;BMP280;40937;53.594;10.034;2023-12-20T04:35:35;100807.06;;;6.78
55038;BMP280;40937;53.594;10.034;2023-12-20T04:38:02;100798.56;;;6.82
55038;BMP280;40937;53.594;10.034;2023-12-20T04:40:31;100789.28;;;6.80
55038;BMP280;40937;53.594;10.034;2023-12-20T04:42:58;100787.50;;;6.80
55038;BMP280;40937;53.594;10.034;2023-12-20T04:45:26;100782.88;;;6.76
55038;BMP280;40937;53.594;10.034;2023-12-20T04:47:53;100780.44;;;6.81
55038;BMP280;40937;53.594;10.034;2023-12-20T04:50:20;100771.97;;;6.79
55038;BMP280;40937;53.594;10.034;2023-12-20T04:52:47;100775.81;;;6.76
55038;BMP280;40937;53.594;10.034;2023-12-20T04:55:14;100765.53;;;6.75
55038;BMP280;40937;53.594;10.034;2023-12-20T04:57:43;100765.50;;;6.81
55038;BMP280;40937;53.594;10.034;2023-12-20T05:00:11;100764.28;;;6.71
55038;BMP280;40937;53.594;10.034;2023-12-20T05:02:40;100769.13;;;6.74
55038;BMP280;40937;53.594;10.034;2023-12-20T05:05:07;100771.16;;;6.72
55038;BMP280;40937;53.594;10.034;2023-12-20T05:07:35;100766.31;;;6.75
55038;BMP280;40937;53.594;10.034;2023-12-20T05:10:02;100763.50;;;6.77
55038;BMP280;40937;53.594;10.034;2023-12-20T05:12:30;100763.09;;;6.73
55038;BMP280;40937;53.594;10.034;2023-12-20T05:14:59;100758.25;;;6.77
55038;BMP280;40937;53.594;10.034;2023-12-20T05:17:26;100753.00;;;6.77
55038;BMP280;40937;53.594;10.034;2023-12-20T05:19:53;100757.25;;;6.78
55038;BMP280;40937;53.594;10.034;2023-12-20T05:22:20;100758.03;;;6.85
55038;BMP280;40937;53.594;10.034;2023-12-20T05:24:47;100759.06;;;6.84
55038;BMP280;40937;53.594;10.034;2023-12-20T05:27:15;100758.25;;;6.83
55038;BMP280;40937;53.594;10.034;2023-12-20T05:29:42;100742.53;;;6.77
55038;BMP280;40937;53.594;10.034;2023-12-20T05:32:10;100741.91;;;6.81
55038;BMP280;40937;53.594;10.034;2023-12-20T05:34:37;100748.97;;;6.81
55038;BMP280;40937;53.594;10.034;2023-12-20T05:37:05;100741.69;;;6.83
55038;BMP280;40937;53.594;10.034;2023-12-20T05:39:32;100751.38;;;6.82
55038;BMP280;40937;53.594;10.034;2023-12-20T05:41:59;100748.16;;;6.87
55038;BMP280;40937;53.594;10.034;2023-12-20T05:44:26;100750.78;;;6.87
55038;BMP280;40937;53.594;10.034;2023-12-20T05:46:53;100740.31;;;6.87
55038;BMP280;40937;53.594;10.034;2023-12-20T05:49:22;100764.69;;;6.81
55038;BMP280;40937;53.594;10.034;2023-12-20T05:51:49;100752.81;;;6.72
55038;BMP280;40937;53.594;10.034;2023-12-20T05:54:16;100746.34;;;6.68
55038;BMP280;40937;53.594;10.034;2023-12-20T05:56:44;100739.31;;;6.75
55038;BMP280;40937;53.594;10.034;2023-12-20T05:59:11;100749.59;;;6.76
55038;BMP280;40937;53.594;10.034;2023-12-20T06:01:38;100732.25;;;6.69
55038;BMP280;40937;53.594;10.034;2023-12-20T06:04:05;100732.44;;;6.67
55038;BMP280;40937;53.594;10.034;2023-12-20T06:06:40;100733.66;;;6.71
55038;BMP280;40937;53.594;10.034;2023-12-20T06:09:07;100728.81;;;6.75
55038;BMP280;40937;53.594;10.034;2023-12-20T06:11:34;100726.38;;;6.80
55038;BMP280;40937;53.594;10.034;2023-12-20T06:14:01;100728.38;;;6.84
55038;BMP280;40937;53.594;10.034;2023-12-20T06:16:29;100718.50;;;6.80
55038;BMP280;40937;53.594;10.034;2023-12-20T06:18:56;100715.06;;;6.86
55038;BMP280;40937;53.594;10.034;2023-12-20T06:21:23;100707.41;;;6.84
55038;BMP280;40937;53.594;10.034;2023-12-20T06:23:51;100711.84;;;6.84
55038;BMP280;40937;53.594;10.034;2023-12-20T06:26:18;100708.66;;;6.75
55038;BMP280;40937;53.594;10.034;2023-12-20T06:28:46;100715.31;;;6.78
55038;BMP280;40937;53.594;10.034;2023-12-20T06:31:13;100705.81;;;6.83
55038;BMP280;40937;53.594;10.034;2023-12-20T06:33:40;100707.00;;;6.81
55038;BMP280;40937;53.594;10.034;2023-12-20T06:36:10;100700.78;;;6.89
55038;BMP280;40937;53.594;10.034;2023-12-20T06:38:37;100695.91;;;6.92
55038;BMP280;40937;53.594;10.034;2023-12-20T06:41:06;100703.56;;;6.94
55038;BMP280;40937;53.594;10.034;2023-12-20T06:43:33;100698.75;;;6.91
55038;BMP280;40937;53.594;10.034;2023-12-20T06:46:00;100701.78;;;6.88
55038;BMP280;40937;53.594;10.034;2023-12-20T06:48:27;100687.22;;;6.85
55038;BMP280;40937;53.594;10.034;2023-12-20T06:50:55;100686.84;;;6.88
55038;BMP280;40937;53.594;10.034;2023-12-20T06:53:22;100678.75;;;6.96
55038;BMP280;40937;53.594;10.034;2023-12-20T06:55:50;100674.69;;;7.00
55038;BMP280;40937;53.594;10.034;2023-12-20T06:58:18;100673.91;;;7.00
55038;BMP280;40937;53.594;10.034;2023-12-20T07:00:45;100673.91;;;7.00
55038;BMP280;40937;53.594;10.034;2023-12-20T07:03:12;100670.88;;;6.96
55038;BMP280;40937;53.594;10.034;2023-12-20T07:05:40;100664.19;;;7.00
55038;BMP280;40937;53.594;10.034;2023-12-20T07:08:07;100663.41;;;6.93
55038;BMP280;40937;53.594;10.034;2023-12-20T07:10:34;100670.78;;;8.18
55038;BMP280;40937;53.594;10.034;2023-12-20T07:13:02;100660.56;;;9.21
55038;BMP280;40937;53.594;10.034;2023-12-20T07:15:31;100666.00;;;10.04
55038;BMP280;40937;53.594;10.034;2023-12-20T07:17:58;100664.84;;;10.35
55038;BMP280;40937;53.594;10.034;2023-12-20T07:20:26;100663.31;;;10.51
55038;BMP280;40937;53.594;10.034;2023-12-20T07:22:53;100671.13;;;10.34
55038;BMP280;40937;53.594;10.034;2023-12-20T07:25:21;100670.84;;;9.53
55038;BMP280;40937;53.594;10.034;2023-12-20T07:27:48;100674.03;;;8.94
55038;BMP280;40937;53.594;10.034;2023-12-20T07:30:15;100664.41;;;8.70
55038;BMP280;40937;53.594;10.034;2023-12-20T07:32:44;100667.00;;;8.33
55038;BMP280;40937;53.594;10.034;2023-12-20T07:35:11;100658.94;;;8.09
55038;BMP280;40937;53.594;10.034;2023-12-20T07:37:38;100663.59;;;8.07
55038;BMP280;40937;53.594;10.034;2023-12-20T07:40:06;100654.81;;;7.95
55038;BMP280;40937;53.594;10.034;2023-12-20T07:42:34;100653.28;;;7.80
55038;BMP280;40937;53.594;10.034;2023-12-20T07:45:01;100659.41;;;7.74
55038;BMP280;40937;53.594;10.034;2023-12-20T07:47:28;100654.75;;;7.76
55038;BMP280;40937;53.594;10.034;2023-12-20T07:49:57;100643.91;;;7.66
55038;BMP280;40937;53.594;10.034;2023-12-20T07:52:24;100632.00;;;7.64
55038;BMP280;40937;53.594;10.034;2023-12-20T07:54:51;100633.69;;;7.51
55038;BMP280;40937;53.594;10.034;2023-12-20T07:57:19;100645.59;;;7.54
55038;BMP280;40937;53.594;10.034;2023-12-20T07:59:46;100645.81;;;7.46
55038;BMP280;40937;53.594;10.034;2023-12-20T08:02:13;100638.97;;;7.45
55038;BMP280;40937;53.594;10.034;2023-12-20T08:04:40;100639.19;;;7.43
55038;BMP280;40937;53.594;10.034;2023-12-20T08:07:09;100642.03;;;7.41
55038;BMP280;40937;53.594;10.034;2023-12-20T08:09:36;100638.97;;;7.45
55038;BMP280;40937;53.594;10.034;2023-12-20T08:12:03;100620.63;;;7.45
55038;BMP280;40937;53.594;10.034;2023-12-20T08:14:32;100645.81;;;7.46
55038;BMP280;40937;53.594;10.034;2023-12-20T08:16:59;100629.75;;;7.35
55038;BMP280;40937;53.594;10.034;2023-12-20T08:19:26;100624.50;;;7.35
55038;BMP280;40937;53.594;10.034;2023-12-20T08:21:53;100606.94;;;7.36
55038;BMP280;40937;53.594;10.034;2023-12-20T08:24:22;100603.09;;;7.38
55038;BMP280;40937;53.594;10.034;2023-12-20T08:26:49;100598.28;;;7.35
55038;BMP280;40937;53.594;10.034;2023-12-20T08:29:16;100602.72;;;7.35
55038;BMP280;40937;53.594;10.034;2023-12-20T08:31:44;100588.97;;;7.33
55038;BMP280;40937;53.594;10.034;2023-12-20T08:34:12;100592.59;;;7.38
55038;BMP280;40937;53.594;10.034;2023-12-20T08:36:40;100584.72;;;7.38
55038;BMP280;40937;53.594;10.034;2023-12-20T08:39:07;100589.47;;;7.23
55038;BMP280;40937;53.594;10.034;2023-12-20T08:41:36;100591.81;;;7.31
55038;BMP280;40937;53.594;10.034;2023-12-20T08:44:03;100586.00;;;7.29
55038;BMP280;40937;53.594;10.034;2023-12-20T08:46:31;100576.28;;;7.36
55038;BMP280;40937;53.594;10.034;2023-12-20T08:48:58;100566.38;;;7.38
55038;BMP280;40937;53.594;10.034;2023-12-20T08:51:26;100575.16;;;7.44
55038;BMP280;40937;53.594;10.034;2023-12-20T08:53:53;100561.47;;;7.42
55038;BMP280;40937;53.594;10.034;2023-12-20T08:56:21;100582.03;;;7.45
55038;BMP280;40937;53.594;10.034;2023-12-20T08:58:49;100578.78;;;7.50
55038;BMP280;40937;53.594;10.034;2023-12-20T09:01:16;100582.44;;;7.49
55038;BMP280;40937;53.594;10.034;2023-12-20T09:03:43;100577.22;;;7.42
55038;BMP280;40937;53.594;10.034;2023-12-20T09:06:10;100578.00;;;7.42
55038;BMP280;40937;53.594;10.034;2023-12-20T09:08:38;100563.09;;;7.43
55038;BMP280;40937;53.594;10.034;2023-12-20T09:11:06;100567.16;;;7.39
55038;BMP280;40937;53.594;10.034;2023-12-20T09:13:34;100567.97;;;7.39
55038;BMP280;40937;53.594;10.034;2023-12-20T09:16:03;100580.50;;;7.37
55038;BMP280;40937;53.594;10.034;2023-12-20T09:18:30;100577.28;;;7.35
55038;BMP280;40937;53.594;10.034;2023-12-20T09:20:57;100589.03;;;7.26
55038;BMP280;40937;53.594;10.034;2023-12-20T09:23:25;100572.09;;;7.22
55038;BMP280;40937;53.594;10.034;2023-12-20T09:25:52;100608.09;;;7.15
55038;BMP280;40937;53.594;10.034;2023-12-20T09:28:19;100581.50;;;7.04
55038;BMP280;40937;53.594;10.034;2023-12-20T09:30:46;100581.31;;;6.99
55038;BMP280;40937;53.594;10.034;2023-12-20T09:33:15;100586.75;;;7.04
55038;BMP280;40937;53.594;10.034;2023-12-20T09:35:42;100585.13;;;7.03
55038;BMP280;40937;53.594;10.034;2023-12-20T09:38:10;100594.16;;;7.08
55038;BMP280;40937;53.594;10.034;2023-12-20T09:40:41;100589.16;;;6.93
55038;BMP280;40937;53.594;10.034;2023-12-20T09:43:11;100596.91;;;6.81
55038;BMP280;40937;53.594;10.034;2023-12-20T09:45:40;100610.19;;;6.86
55038;BMP280;40937;53.594;10.034;2023-12-20T09:48:10;100616.69;;;6.77
55038;BMP280;40937;53.594;10.034;2023-12-20T09:50:39;100617.34;;;6.65
55038;BMP280;40937;53.594;10.034;2023-12-20T09:53:08;100614.72;;;6.59
55038;BMP280;40937;53.594;10.034;2023-12-20T09:55:37;100622.38;;;6.60
55038;BMP280;40937;53.594;10.034;2023-12-20T09:58:05;100623.19;;;6.61
55038;BMP280;40937;53.594;10.034;2023-12-20T10:00:34;100611.06;;;6.66
55038;BMP280;40937;53.594;10.034;2023-12-20T10:03:02;100611.06;;;6.66
55038;BMP280;40937;53.594;10.034;2023-12-20T10:05:31;100604.66;;;6.49
55038;BMP280;40937;53.594;10.034;2023-12-20T10:08:01;100603.47;;;6.52
55038;BMP280;40937;53.594;10.034;2023-12-20T10:10:29;100591.75;;;6.54
55038;BMP280;40937;53.594;10.034;2023-12-20T10:13:04;100582.47;;;6.58
55038;BMP280;40937;53.594;10.034;2023-12-20T10:15:32;100624.84;;;6.28
55038;BMP280;40937;53.594;10.034;2023-12-20T10:18:00;100626.84;;;6.13
55038;BMP280;40937;53.594;10.034;2023-12-20T10:20:27;100637.34;;;6.13
55038;BMP280;40937;53.594;10.034;2023-12-20T10:22:55;100622.03;;;6.17
55038;BMP280;40937;53.594;10.034;2023-12-20T10:25:24;100628.47;;;6.21
55038;BMP280;40937;53.594;10.034;2023-12-20T10:28:10;100618.19;;;6.13
55038;BMP280;40937;53.594;10.034;2023-12-20T10:30:38;100613.16;;;6.18
55038;BMP280;40937;53.594;10.034;2023-12-20T10:33:06;100611.75;;;6.28
55038;BMP280;40937;53.594;10.034;2023-12-20T10:35:33;100605.91;;;6.33
55038;BMP280;40937;53.594;10.034;2023-12-20T10:38:03;100594.03;;;6.31
55038;BMP280;40937;53.594;10.034;2023-12-20T10:40:34;100589.13;;;6.47
55038;BMP280;40937;53.594;10.034;2023-12-20T10:43:03;100589.75;;;6.43
55038;BMP280;40937;53.594;10.034;2023-12-20T10:45:30;100596.00;;;6.42
55038;BMP280;40937;53.594;10.034;2023-12-20T10:47:58;100597.44;;;6.51
55038;BMP280;40937;53.594;10.034;2023-12-20T10:50:26;100581.72;;;6.38
55038;BMP280;40937;53.594;10.034;2023-12-20T10:52:54;100582.91;;;6.42
55038;BMP280;40937;53.594;10.034;2023-12-20T10:55:22;100572.44;;;6.42
55038;BMP280;40937;53.594;10.034;2023-12-20T10:57:51;100584.13;;;6.53
55038;BMP280;40937;53.594;10.034;2023-12-20T11:00:19;100581.06;;;6.49
55038;BMP280;40937;53.594;10.034;2023-12-20T11:02:49;100586.13;;;6.51
55038;BMP280;40937;53.594;10.034;2023-12-20T11:05:25;100582.72;;;6.37
55038;BMP280;40937;53.594;10.034;2023-12-20T11:07:58;100575.66;;;6.44
55038;BMP280;40937;53.594;10.034;2023-12-20T11:10:31;100583.69;;;6.49
55038;BMP280;40937;53.594;10.034;2023-12-20T11:13:09;100591.34;;;6.51
55038;BMP280;40937;53.594;10.034;2023-12-20T11:15:37;100597.44;;;6.51
55038;BMP280;40937;53.594;10.034;2023-12-20T11:18:05;100618.81;;;6.35
55038;BMP280;40937;53.594;10.034;2023-12-20T11:20:37;100623.63;;;6.31
55038;BMP280;40937;53.594;10.034;2023-12-20T11:23:05;100620.81;;;6.26
55038;BMP280;40937;53.594;10.034;2023-12-20T11:25:46;100614.38;;;6.02
55038;BMP280;40937;53.594;10.034;2023-12-20T11:28:15;100605.94;;;5.80
55038;BMP280;40937;53.594;10.034;2023-12-20T11:30:47;100620.22;;;5.64
55038;BMP280;40937;53.594;10.034;2023-12-20T11:33:15;100625.00;;;5.47
55038;BMP280;40937;53.594;10.034;2023-12-20T11:35:42;100590.22;;;5.73
55038;BMP280;40937;53.594;10.034;2023-12-20T11:38:10;100591.81;;;5.74
55038;BMP280;40937;53.594;10.034;2023-12-20T11:40:37;100596.44;;;5.85
55038;BMP280;40937;53.594;10.034;2023-12-20T11:43:04;100610.75;;;5.89
55038;BMP280;40937;53.594;10.034;2023-12-20T11:45:33;100599.47;;;5.76
55038;BMP280;40937;53.594;10.034;2023-12-20T11:48:02;100601.88;;;5.77
55038;BMP280;40937;53.594;10.034;2023-12-20T11:50:29;100595.44;;;5.93
55038;BMP280;40937;53.594;10.034;2023-12-20T11:52:57;100598.47;;;5.97
55038;BMP280;40937;53.594;10.034;2023-12-20T11:55:24;100596.28;;;5.94
55038;BMP280;40937;53.594;10.034;2023-12-20T11:57:51;100599.06;;;5.99
55038;BMP280;40937;53.594;10.034;2023-12-20T12:00:20;100587.78;;;6.12
55038;BMP280;40937;53.594;10.034;2023-12-20T12:02:58;100593.81;;;6.25
55038;BMP280;40937;53.594;10.034;2023-12-20T12:05:27;100601.88;;;6.17
55038;BMP280;40937;53.594;10.034;2023-12-20T12:07:54;100591.81;;;6.14
55038;BMP280;40937;53.594;10.034;2023-12-20T12:10:21;100602.28;;;6.14
55038;BMP280;40937;53.594;10.034;2023-12-20T12:12:49;100601.28;;;6.15
55038;BMP280;40937;53.594;10.034;2023-12-20T12:15:16;100594.03;;;6.24
55038;BMP280;40937;53.594;10.034;2023-12-20T12:17:43;100591.41;;;6.17
55038;BMP280;40937;53.594;10.034;2023-12-20T12:20:12;100575.91;;;6.16
55038;BMP280;40937;53.594;10.034;2023-12-20T12:22:39;100583.16;;;6.14
55038;BMP280;40937;53.594;10.034;2023-12-20T12:25:11;100580.16;;;6.17
55038;BMP280;40937;53.594;10.034;2023-12-20T12:27:40;100568.84;;;6.30
55038;BMP280;40937;53.594;10.034;2023-12-20T12:30:08;100561.56;;;6.32
55038;BMP280;40937;53.594;10.034;2023-12-20T12:32:37;100565.38;;;6.42
55038;BMP280;40937;53.594;10.034;2023-12-20T12:35:05;100566.00;;;6.38
55038;BMP280;40937;53.594;10.034;2023-12-20T12:37:37;100566.78;;;6.45
55038;BMP280;40937;53.594;10.034;2023-12-20T12:40:06;100564.34;;;6.50
55038;BMP280;40937;53.594;10.034;2023-12-20T12:42:34;100562.09;;;6.54
55038;BMP280;40937;53.594;10.034;2023-12-20T12:45:01;100568.75;;;6.56
55038;BMP280;40937;53.594;10.034;2023-12-20T12:47:28;100563.31;;;6.64
55038;BMP280;40937;53.594;10.034;2023-12-20T12:49:56;100557.06;;;6.59
55038;BMP280;40937;53.594;10.034;2023-12-20T12:52:23;100564.72;;;6.60
55038;BMP280;40937;53.594;10.034;2023-12-20T12:54:52;100569.97;;;6.60
55038;BMP280;40937;53.594;10.034;2023-12-20T12:57:19;100567.09;;;6.69
55038;BMP280;40937;53.594;10.034;2023-12-20T12:59:46;100577.22;;;6.58
55038;BMP280;40937;53.594;10.034;2023-12-20T13:02:13;100569.59;;;6.50
55038;BMP280;40937;53.594;10.034;2023-12-20T13:04:40;100575.19;;;6.54
55038;BMP280;40937;53.594;10.034;2023-12-20T13:07:09;100583.47;;;6.57
55038;BMP280;40937;53.594;10.034;2023-12-20T13:09:37;100579.63;;;6.60
55038;BMP280;40937;53.594;10.034;2023-12-20T13:12:07;100580.88;;;6.57
55038;BMP280;40937;53.594;10.034;2023-12-20T13:14:35;100586.50;;;6.61
55038;BMP280;40937;53.594;10.034;2023-12-20T13:17:03;100585.28;;;6.57
55038;BMP280;40937;53.594;10.034;2023-12-20T13:19:30;100576.03;;;6.54
55038;BMP280;40937;53.594;10.034;2023-12-20T13:21:58;100571.22;;;6.51
55038;BMP280;40937;53.594;10.034;2023-12-20T13:24:25;100576.41;;;6.64
55038;BMP280;40937;53.594;10.034;2023-12-20T13:26:52;100587.25;;;6.75
55038;BMP280;40937;53.594;10.034;2023-12-20T13:29:21;100577.63;;;6.62
55038;BMP280;40937;53.594;10.034;2023-12-20T13:31:48;100583.69;;;6.62
55038;BMP280;40937;53.594;10.034;2023-12-20T13:34:16;100582.88;;;6.62
55038;BMP280;40937;53.594;10.034;2023-12-20T13:36:43;100586.06;;;6.71
55038;BMP280;40937;53.594;10.034;2023-12-20T13:39:13;100587.72;;;6.65
55038;BMP280;40937;53.594;10.034;2023-12-20T13:41:40;100591.69;;;6.68
55038;BMP280;40937;53.594;10.034;2023-12-20T13:44:08;100588.06;;;6.69
55038;BMP280;40937;53.594;10.034;2023-12-20T13:46:37;100590.09;;;6.66
55038;BMP280;40937;53.594;10.034;2023-12-20T13:49:04;100591.75;;;6.54
55038;BMP280;40937;53.594;10.034;2023-12-20T13:51:31;100591.75;;;6.61
55038;BMP280;40937;53.594;10.034;2023-12-20T13:53:59;100586.44;;;6.68
55038;BMP280;40937;53.594;10.034;2023-12-20T13:56:26;100589.28;;;6.66
55038;BMP280;40937;53.594;10.034;2023-12-20T13:58:53;100600.59;;;6.66